sensor_id;sensor_type;location;lat;lon;timestamp;P1;durP1;ratioP1;P2;durP2;ratioP2
12459;SDS011;6295;49.452;8.466;2023-10-19T08:14:36;14.30;;;12.80;;
12459;SDS011;6295;49.452;8.466;2023-10-19T08:18:40;15.60;;;13.87;;
12459;SDS011;6295;49.452;8.466;2023-10-19T08:22:44;18.37;;;14.43;;
12459;SDS011;6295;49.452;8.466;2023-10-19T08:26:47;18.30;;;14.17;;
12459;SDS011;6295;49.452;8.466;2023-10-19T08:30:52;14.83;;;12.27;;
12459;SDS011;6295;49.452;8.466;2023-10-19T08:35:03;17.83;;;14.33;;
12459;SDS011;6295;49.452;8.466;2023-10-19T08:39:07;15.97;;;13.03;;
12459;SDS011;6295;49.452;8.466;2023-10-19T08:43:13;14.50;;;11.97;;
12459;SDS011;6295;49.452;8.466;2023-10-19T08:47:19;14.33;;;11.67;;
12459;SDS011;6295;49.452;8.466;2023-10-19T08:51:25;11.90;;;10.53;;
12459;SDS011;6295;49.452;8.466;2023-10-19T08:55:30;12.80;;;10.53;;
12459;SDS011;6295;49.452;8.466;2023-10-19T08:59:34;14.63;;;11.63;;
12459;SDS011;6295;49.452;8.466;2023-10-19T09:03:39;14.43;;;11.63;;
12459;SDS011;6295;49.452;8.466;2023-10-19T09:07:42;12.40;;;10.63;;
12459;SDS011;6295;49.452;8.466;2023-10-19T09:11:48;11.93;;;10.17;;
12459;SDS011;6295;49.452;8.466;2023-10-19T09:15:51;11.70;;;10.50;;
12459;SDS011;6295;49.452;8.466;2023-10-19T09:19:59;11.33;;;10.03;;
12459;SDS011;6295;49.452;8.466;2023-10-19T09:24:10;12.80;;;11.33;;
12459;SDS011;6295;49.452;8.466;2023-10-19T09:28:12;11.80;;;10.47;;
12459;SDS011;6295;49.452;8.466;2023-10-19T09:32:14;12.50;;;10.23;;
12459;SDS011;6295;49.452;8.466;2023-10-19T09:36:18;10.83;;;9.73;;
12459;SDS011;6295;49.452;8.466;2023-10-19T09:40:23;12.53;;;11.23;;
12459;SDS011;6295;49.452;8.466;2023-10-19T09:44:28;11.30;;;10.10;;
12459;SDS011;6295;49.452;8.466;2023-10-19T09:48:36;12.03;;;10.50;;
12459;SDS011;6295;49.452;8.466;2023-10-19T09:52:44;10.90;;;9.70;;
12459;SDS011;6295;49.452;8.466;2023-10-19T09:56:49;13.70;;;10.67;;
12459;SDS011;6295;49.452;8.466;2023-10-19T10:00:56;9.63;;;8.70;;
12459;SDS011;6295;49.452;8.466;2023-10-19T10:04:58;9.63;;;8.63;;
12459;SDS011;6295;49.452;8.466;2023-10-19T10:09:02;8.40;;;7.60;;
12459;SDS011;6295;49.452;8.466;2023-10-19T10:13:35;8.53;;;7.73;;
12459;SDS011;6295;49.452;8.466;2023-10-19T10:17:38;8.67;;;7.67;;
12459;SDS011;6295;49.452;8.466;2023-10-19T10:21:40;8.13;;;7.00;;
12459;SDS011;6295;49.452;8.466;2023-10-19T10:26:16;8.07;;;7.07;;
12459;SDS011;6295;49.452;8.466;2023-10-19T10:30:26;7.80;;;7.00;;
12459;SDS011;6295;49.452;8.466;2023-10-19T10:34:42;8.77;;;7.97;;
12459;SDS011;6295;49.452;8.466;2023-10-19T10:38:46;8.57;;;7.10;;
12459;SDS011;6295;49.452;8.466;2023-10-19T10:42:52;7.23;;;6.30;;
12459;SDS011;6295;49.452;8.466;2023-10-19T10:47:07;7.87;;;7.13;;
12459;SDS011;6295;49.452;8.466;2023-10-19T10:51:17;8.43;;;7.63;;
12459;SDS011;6295;49.452;8.466;2023-10-19T10:55:20;7.63;;;6.87;;
12459;SDS011;6295;49.452;8.466;2023-10-19T10:59:26;7.27;;;6.63;;
12459;SDS011;6295;49.452;8.466;2023-10-19T11:03:29;8.53;;;6.93;;
12459;SDS011;6295;49.452;8.466;2023-10-19T11:07:31;7.97;;;7.27;;
12459;SDS011;6295;49.452;8.466;2023-10-19T11:11:37;7.03;;;6.33;;
12459;SDS011;6295;49.452;8.466;2023-10-19T11:15:48;8.03;;;6.70;;
12459;SDS011;6295;49.452;8.466;2023-10-19T11:19:53;7.10;;;6.40;;
12459;SDS011;6295;49.452;8.466;2023-10-19T11:23:57;6.70;;;6.10;;
12459;SDS011;6295;49.452;8.466;2023-10-19T11:28:00;7.07;;;6.23;;
12459;SDS011;6295;49.452;8.466;2023-10-19T11:32:06;8.00;;;6.40;;
12459;SDS011;6295;49.452;8.466;2023-10-19T11:36:10;7.57;;;6.77;;
12459;SDS011;6295;49.452;8.466;2023-10-19T11:40:14;6.60;;;6.00;;
12459;SDS011;6295;49.452;8.466;2023-10-19T11:44:19;6.57;;;5.97;;
12459;SDS011;6295;49.452;8.466;2023-10-19T11:48:26;7.30;;;6.20;;
12459;SDS011;6295;49.452;8.466;2023-10-19T11:52:31;7.70;;;6.10;;
12459;SDS011;6295;49.452;8.466;2023-10-19T11:56:38;8.00;;;7.20;;
12459;SDS011;6295;49.452;8.466;2023-10-19T12:00:45;6.87;;;6.17;;
12459;SDS011;6295;49.452;8.466;2023-10-19T12:04:52;7.93;;;5.93;;
12459;SDS011;6295;49.452;8.466;2023-10-19T12:08:57;7.20;;;6.13;;
12459;SDS011;6295;49.452;8.466;2023-10-19T12:13:06;6.60;;;6.00;;
12459;SDS011;6295;49.452;8.466;2023-10-19T12:17:13;6.93;;;6.23;;
12459;SDS011;6295;49.452;8.466;2023-10-19T12:21:21;6.57;;;5.97;;
12459;SDS011;6295;49.452;8.466;2023-10-19T12:25:28;8.47;;;7.07;;
12459;SDS011;6295;49.452;8.466;2023-10-19T12:29:32;7.37;;;6.67;;
12459;SDS011;6295;49.452;8.466;2023-10-19T12:33:35;6.97;;;6.00;;
12459;SDS011;6295;49.452;8.466;2023-10-19T12:37:40;8.00;;;7.20;;
12459;SDS011;6295;49.452;8.466;2023-10-19T12:41:46;7.70;;;6.87;;
12459;SDS011;6295;49.452;8.466;2023-10-19T12:45:51;8.20;;;6.83;;
12459;SDS011;6295;49.452;8.466;2023-10-19T12:49:59;7.33;;;6.50;;
12459;SDS011;6295;49.452;8.466;2023-10-19T12:54:05;7.50;;;6.80;;
12459;SDS011;6295;49.452;8.466;2023-10-19T12:58:10;7.30;;;6.60;;
12459;SDS011;6295;49.452;8.466;2023-10-19T13:02:15;7.60;;;6.90;;
12459;SDS011;6295;49.452;8.466;2023-10-19T13:06:18;8.03;;;7.10;;
12459;SDS011;6295;49.452;8.466;2023-10-19T13:10:23;7.93;;;6.90;;
12459;SDS011;6295;49.452;8.466;2023-10-19T13:14:32;9.00;;;7.63;;
12459;SDS011;6295;49.452;8.466;2023-10-19T13:18:35;7.30;;;6.60;;
12459;SDS011;6295;49.452;8.466;2023-10-19T13:22:40;7.63;;;6.87;;
12459;SDS011;6295;49.452;8.466;2023-10-19T13:26:46;6.80;;;6.20;;
12459;SDS011;6295;49.452;8.466;2023-10-19T13:30:48;7.53;;;6.33;;
12459;SDS011;6295;49.452;8.466;2023-10-19T13:34:54;7.70;;;6.90;;
12459;SDS011;6295;49.452;8.466;2023-10-19T13:39:00;6.50;;;5.90;;
12459;SDS011;6295;49.452;8.466;2023-10-19T13:43:10;7.13;;;6.53;;
12459;SDS011;6295;49.452;8.466;2023-10-19T13:47:19;7.67;;;6.97;;
12459;SDS011;6295;49.452;8.466;2023-10-19T13:51:27;8.67;;;7.17;;
12459;SDS011;6295;49.452;8.466;2023-10-19T13:55:34;8.73;;;7.83;;
12459;SDS011;6295;49.452;8.466;2023-10-19T13:59:43;7.10;;;6.40;;
12459;SDS011;6295;49.452;8.466;2023-10-19T14:03:50;8.60;;;7.33;;
12459;SDS011;6295;49.452;8.466;2023-10-19T14:07:55;9.07;;;7.90;;
12459;SDS011;6295;49.452;8.466;2023-10-19T14:11:57;8.37;;;7.23;;
12459;SDS011;6295;49.452;8.466;2023-10-19T14:16:01;7.47;;;6.37;;
12459;SDS011;6295;49.452;8.466;2023-10-19T14:20:08;7.63;;;6.73;;
12459;SDS011;6295;49.452;8.466;2023-10-19T14:24:13;7.40;;;6.70;;
12459;SDS011;6295;49.452;8.466;2023-10-19T14:28:17;7.30;;;6.60;;
12459;SDS011;6295;49.452;8.466;2023-10-19T14:32:23;8.67;;;7.50;;
12459;SDS011;6295;49.452;8.466;2023-10-19T14:36:27;8.43;;;6.77;;
12459;SDS011;6295;49.452;8.466;2023-10-19T14:40:30;9.43;;;8.43;;
12459;SDS011;6295;49.452;8.466;2023-10-19T14:44:32;7.90;;;6.90;;
12459;SDS011;6295;49.452;8.466;2023-10-19T14:48:36;8.00;;;7.20;;
12459;SDS011;6295;49.452;8.466;2023-10-19T14:52:38;10.27;;;8.67;;
